Time;durP1;ratioP1;P1;durP2;ratioP2;P2;SDS_P1;SDS_P2;PMS_P1;PMS_P2;Temp;Humidity;BMP_temperature;BMP_pressure;BME280_temperature;BME280_humidity;BME280_pressure;Samples;Min_cycle;Max_cycle;Signal;HPM_P1;HPM_P2
2023/06/10 00:02:16;;;;;;;7.53;4.28;;;;;;;13.15;51.36;99642.09;5056383;28;20052;-65
2023/06/10 00:04:41;;;;;;;7.40;4.63;;;;;;;13.09;51.55;99669.34;5056291;28;20052;-66
2023/06/10 00:07:08;;;;;;;8.57;3.85;;;;;;;12.99;51.64;99679.06;5055392;28;20044;-64
2023/06/10 00:09:38;;;;;;;5.90;3.50;;;;;;;12.96;51.81;99679.34;5056099;28;20055;-67
2023/06/10 00:12:09;;;;;;;6.00;3.35;;;;;;;12.90;52.32;99674.47;5056077;28;20043;-65
2023/06/10 00:14:37;;;;;;;6.65;4.30;;;;;;;12.83;52.70;99636.66;5046455;28;20059;-65
2023/06/10 00:17:03;;;;;;;4.75;3.60;;;;;;;12.81;52.40;99680.56;5021255;28;20052;-67
2023/06/10 00:19:31;;;;;;;3.88;2.97;;;;;;;12.73;52.63;99683.84;5056060;28;20054;-67
2023/06/10 00:21:57;;;;;;;3.83;3.03;;;;;;;12.68;52.94;99697.56;5056190;28;20062;-66
2023/06/10 00:24:23;;;;;;;9.77;3.72;;;;;;;12.62;53.21;99714.13;5055971;28;20376;-64
2023/06/10 00:26:48;;;;;;;5.20;3.67;;;;;;;12.60;53.22;99726.75;5041121;28;20040;-68
2023/06/10 00:29:14;;;;;;;8.13;3.15;;;;;;;12.57;53.44;99716.28;5056033;28;20490;-71
2023/06/10 00:31:39;;;;;;;5.88;3.03;;;;;;;12.56;53.73;99703.91;5054674;28;20517;-72
2023/06/10 00:34:09;;;;;;;21.55;4.20;;;;;;;12.59;53.85;99718.84;5037372;28;20051;-68
2023/06/10 00:36:35;;;;;;;3.58;3.22;;;;;;;12.56;53.50;99725.28;5053992;28;20048;-67
2023/06/10 00:39:01;;;;;;;4.80;3.28;;;;;;;12.58;53.58;99723.34;5055712;28;20406;-66
2023/06/10 00:41:27;;;;;;;9.20;3.03;;;;;;;12.57;53.53;99732.34;5055373;28;20048;-66
2023/06/10 00:43:52;;;;;;;7.00;3.17;;;;;;;12.54;53.55;99721.88;5055568;28;20052;-65
2023/06/10 00:46:18;;;;;;;5.32;3.63;;;;;;;12.54;53.58;99727.22;5055752;28;20039;-73
2023/06/10 00:48:45;;;;;;;5.25;3.70;;;;;;;12.61;53.29;99727.63;5054257;28;20055;-72
2023/06/10 00:51:11;;;;;;;6.30;3.50;;;;;;;12.62;53.52;99716.78;5055611;28;20048;-71
2023/06/10 00:53:39;;;;;;;5.78;3.80;;;;;;;12.63;53.14;99731.03;5055268;28;20040;-73
2023/06/10 00:56:05;;;;;;;4.22;3.67;;;;;;;12.65;53.18;99745.09;5020934;28;20044;-72
2023/06/10 00:58:31;;;;;;;6.10;3.63;;;;;;;12.61;53.64;99743.66;5049152;28;20046;-71
2023/06/10 01:00:57;;;;;;;6.35;4.07;;;;;;;12.62;53.74;99750.72;5055212;28;20055;-70
2023/06/10 01:03:26;;;;;;;6.25;4.13;;;;;;;12.66;53.22;99736.09;5055733;28;20044;-72
2023/06/10 01:06:04;;;;;;;5.60;3.40;;;;;;;12.73;53.17;99748.06;5037201;28;20492;-71
2023/06/10 01:08:41;;;;;;;4.88;3.33;;;;;;;12.73;53.44;99754.25;5054138;28;20036;-68
2023/06/10 01:11:12;;;;;;;5.22;3.90;;;;;;;12.71;53.42;99750.84;5055835;28;20513;-73
2023/06/10 01:13:41;;;;;;;6.07;3.65;;;;;;;12.73;53.75;99754.25;5054144;28;20058;-72
2023/06/10 01:16:06;;;;;;;6.15;3.75;;;;;;;12.77;53.65;99743.28;5036719;28;20056;-73
2023/06/10 01:18:32;;;;;;;5.55;3.72;;;;;;;12.79;53.79;99757.41;5054063;28;20055;-72
2023/06/10 01:20:57;;;;;;;4.80;3.25;;;;;;;12.79;53.99;99752.06;5036916;28;20056;-73
2023/06/10 01:23:23;;;;;;;5.25;3.35;;;;;;;12.80;53.76;99759.09;5055699;28;20440;-73
2023/06/10 01:25:55;;;;;;;3.15;2.75;;;;;;;12.78;53.64;99761.03;5053915;28;20035;-72
2023/06/10 01:28:53;;;;;;;6.70;2.97;;;;;;;12.83;53.66;99759.72;5005249;28;20048;-68
2023/06/10 01:31:50;;;;;;;4.72;3.20;;;;;;;12.76;53.97;99771.00;5017184;28;20059;-69
2023/06/10 01:34:17;;;;;;;3.33;2.75;;;;;;;12.58;53.98;99787.53;5037771;28;20054;-72
2023/06/10 01:36:47;;;;;;;5.45;2.97;;;;;;;12.57;54.50;99774.28;5037083;28;20044;-72
2023/06/10 01:39:16;;;;;;;4.15;3.08;;;;;;;12.54;54.56;99770.00;5054055;28;20040;-74
2023/06/10 01:41:41;;;;;;;3.25;2.67;;;;;;;12.65;54.19;99771.84;5036984;28;20046;-69
2023/06/10 01:44:06;;;;;;;3.38;2.60;;;;;;;12.62;54.19;99766.75;5052831;28;20032;-69
2023/06/10 01:46:31;;;;;;;4.05;3.13;;;;;;;12.58;54.56;99782.19;5054669;28;20059;-70
2023/06/10 01:48:57;;;;;;;6.18;2.88;;;;;;;12.55;54.82;99777.06;5054492;28;20036;-69
2023/06/10 01:51:22;;;;;;;5.05;3.33;;;;;;;12.56;55.09;99775.25;5036583;28;20043;-71
2023/06/10 01:53:47;;;;;;;4.78;3.30;;;;;;;12.61;54.78;99787.31;5053319;28;20047;-71
2023/06/10 01:56:18;;;;;;;4.55;3.22;;;;;;;12.63;55.05;99789.88;5054494;28;20383;-68
2023/06/10 01:58:45;;;;;;;5.38;3.10;;;;;;;12.66;54.86;99793.13;5036494;28;20055;-67
2023/06/10 02:01:11;;;;;;;4.68;3.35;;;;;;;12.65;54.83;99788.75;5036025;28;20506;-68
2023/06/10 02:03:36;;;;;;;2.72;2.40;;;;;;;12.66;55.43;99779.75;5054465;28;20035;-69
2023/06/10 02:06:01;;;;;;;5.65;3.05;;;;;;;12.62;55.54;99797.03;5054372;28;20395;-68
2023/06/10 02:08:27;;;;;;;7.68;2.95;;;;;;;12.66;55.33;99795.81;5054439;28;20047;-69
2023/06/10 02:10:52;;;;;;;4.20;3.15;;;;;;;12.66;55.50;99790.47;5048927;28;20046;-69
2023/06/10 02:13:18;;;;;;;4.82;2.95;;;;;;;12.70;55.32;99791.94;5047210;28;20035;-70
2023/06/10 02:15:43;;;;;;;5.20;2.95;;;;;;;12.59;55.45;99794.59;5036605;28;20044;-71
2023/06/10 02:18:10;;;;;;;4.47;2.95;;;;;;;12.56;55.63;99805.50;5051793;28;20426;-71
2023/06/10 02:20:36;;;;;;;4.85;3.10;;;;;;;12.56;55.98;99805.50;5054479;28;20040;-71
2023/06/10 02:23:02;;;;;;;6.20;3.95;;;;;;;12.60;55.69;99801.66;5054178;28;20043;-72
2023/06/10 02:25:27;;;;;;;4.07;2.90;;;;;;;12.57;55.88;99801.88;5036361;28;20585;-71
2023/06/10 02:27:53;;;;;;;6.45;2.80;;;;;;;12.57;55.96;99807.22;5035635;28;20051;-71
2023/06/10 02:30:18;;;;;;;6.07;3.25;;;;;;;12.58;56.17;99802.72;5051579;28;20048;-77
2023/06/10 02:32:47;;;;;;;4.10;3.15;;;;;;;12.61;56.08;99818.53;5036996;28;20055;-75
2023/06/10 02:35:14;;;;;;;8.55;3.25;;;;;;;12.63;55.71;99822.81;5036469;28;20043;-75
2023/06/10 02:37:40;;;;;;;6.03;3.60;;;;;;;12.64;55.92;99824.50;5053304;28;20044;-76
2023/06/10 02:40:07;;;;;;;4.68;3.28;;;;;;;12.71;55.79;99822.22;5056570;28;20043;-74
2023/06/10 02:42:32;;;;;;;4.20;3.25;;;;;;;12.70;55.85;99802.63;5052020;28;20036;-70
2023/06/10 02:44:58;;;;;;;5.07;3.63;;;;;;;12.75;55.89;99820.16;5039466;28;20044;-69
2023/06/10 02:47:33;;;;;;;5.50;3.63;;;;;;;12.78;55.47;99820.75;5039586;28;20063;-70
2023/06/10 02:49:58;;;;;;;5.30;3.50;;;;;;;12.77;55.60;99839.59;5039666;28;20047;-70
2023/06/10 02:52:24;;;;;;;5.60;3.42;;;;;;;12.76;55.96;99819.16;5039863;28;20055;-72
2023/06/10 02:54:50;;;;;;;6.32;3.63;;;;;;;12.72;56.14;99821.25;5040366;28;20044;-72
2023/06/10 02:57:15;;;;;;;5.72;3.72;;;;;;;12.77;56.20;99823.53;5040127;28;20043;-73
2023/06/10 02:59:41;;;;;;;11.23;4.20;;;;;;;12.86;55.69;99823.72;5040408;28;20043;-72
2023/06/10 03:02:07;;;;;;;7.00;3.88;;;;;;;12.93;55.68;99824.91;5032322;28;20052;-71
2023/06/10 03:04:39;;;;;;;4.82;3.53;;;;;;;13.06;55.63;99823.00;5048723;28;20392;-72
2023/06/10 03:07:10;;;;;;;5.28;3.20;;;;;;;13.18;55.20;99829.22;4999571;28;20920;-70
2023/06/10 03:09:36;;;;;;;9.88;4.05;;;;;;;13.26;55.21;99821.44;5014605;28;20040;-73
2023/06/10 03:12:03;;;;;;;6.40;3.67;;;;;;;13.35;54.59;99830.56;4982624;28;20064;-73
2023/06/10 03:14:34;;;;;;;7.43;4.07;;;;;;;13.38;54.10;99857.94;4999674;28;20084;-73
2023/06/10 03:16:59;;;;;;;6.47;3.47;;;;;;;13.44;54.21;99830.66;4997980;28;20051;-73
2023/06/10 03:19:25;;;;;;;3.78;2.72;;;;;;;13.54;54.01;99829.94;5000269;28;20746;-74
2023/06/10 03:22:09;;;;;;;7.20;3.42;;;;;;;13.64;53.70;99837.13;5000281;28;20086;-73
2023/06/10 03:24:39;;;;;;;5.63;3.72;;;;;;;13.59;53.00;99833.94;5016684;28;20049;-73
2023/06/10 03:27:10;;;;;;;5.80;3.65;;;;;;;13.67;53.18;99831.47;5018003;28;20052;-73
2023/06/10 03:29:37;;;;;;;7.38;3.38;;;;;;;13.64;52.93;99863.06;5016791;28;20049;-74
2023/06/10 03:32:04;;;;;;;4.03;3.30;;;;;;;13.70;52.79;99835.75;4999764;28;20056;-72
2023/06/10 03:34:32;;;;;;;3.33;3.03;;;;;;;13.81;52.53;99839.25;5021743;28;20775;-74
2023/06/10 03:36:58;;;;;;;4.38;3.45;;;;;;;13.81;52.70;99858.00;5000903;28;20052;-73
2023/06/10 03:39:24;;;;;;;3.65;3.10;;;;;;;13.96;52.70;99839.00;5016890;28;20045;-72
2023/06/10 03:41:50;;;;;;;4.30;3.53;;;;;;;14.04;52.28;99829.31;5016940;28;20052;-72
2023/06/10 03:44:15;;;;;;;6.75;3.55;;;;;;;14.12;52.31;99847.44;5037765;28;20048;-73
2023/06/10 03:46:40;;;;;;;5.22;3.05;;;;;;;14.23;51.84;99851.91;5048563;28;20417;-74
2023/06/10 03:49:05;;;;;;;4.95;3.70;;;;;;;14.34;52.17;99851.88;5019394;28;20581;-75
2023/06/10 03:51:32;;;;;;;7.78;3.92;;;;;;;14.38;51.47;99842.59;5035959;28;20055;-73
2023/06/10 03:53:58;;;;;;;5.68;3.67;;;;;;;14.49;51.00;99846.13;5035785;28;20040;-73
2023/06/10 03:56:23;;;;;;;7.60;3.50;;;;;;;14.56;50.54;99845.63;5034954;28;20064;-72
2023/06/10 03:58:49;;;;;;;5.13;2.55;;;;;;;14.65;50.70;99840.31;5016052;28;20064;-72
2023/06/10 04:01:14;;;;;;;3.30;3.00;;;;;;;14.77;50.67;99847.31;5018826;28;20056;-74
2023/06/10 04:03:41;;;;;;;4.72;3.45;;;;;;;14.79;49.87;99848.00;5047807;28;20057;-72
2023/06/10 04:06:06;;;;;;;6.30;3.63;;;;;;;14.82;49.91;99869.22;5019359;28;20503;-73
2023/06/10 04:08:32;;;;;;;4.70;3.60;;;;;;;14.95;49.72;99857.44;5041755;28;20039;-73
2023/06/10 04:10:59;;;;;;;4.45;2.83;;;;;;;15.11;49.95;99852.47;5055521;28;20490;-73
2023/06/10 04:13:26;;;;;;;6.18;3.42;;;;;;;15.23;48.97;99863.00;5055173;28;20040;-73
2023/06/10 04:15:54;;;;;;;4.00;2.83;;;;;;;15.33;49.23;99868.41;5038704;28;20086;-73
2023/06/10 04:18:21;;;;;;;7.97;3.63;;;;;;;15.40;48.53;99864.19;5056327;28;20040;-73
2023/06/10 04:20:47;;;;;;;3.78;3.35;;;;;;;15.44;48.38;99864.78;5055438;28;20055;-71
2023/06/10 04:23:13;;;;;;;4.45;2.45;;;;;;;15.44;47.88;99848.66;5055826;28;20036;-72
2023/06/10 04:25:40;;;;;;;3.55;2.95;;;;;;;15.49;47.61;99868.75;5038229;28;20059;-72
2023/06/10 04:28:05;;;;;;;3.33;2.40;;;;;;;15.58;47.56;99884.09;5038265;28;20051;-74
2023/06/10 04:30:31;;;;;;;3.42;2.58;;;;;;;15.67;47.43;99886.97;5038176;28;20525;-73
2023/06/10 04:32:57;;;;;;;7.65;2.50;;;;;;;15.77;47.07;99871.72;5055327;28;20499;-76
2023/06/10 04:35:22;;;;;;;2.72;2.33;;;;;;;15.86;46.74;99878.94;5038513;28;20047;-73
2023/06/10 04:37:48;;;;;;;4.22;2.13;;;;;;;15.97;46.56;99868.94;5055311;28;20421;-76
2023/06/10 04:40:15;;;;;;;7.40;2.58;;;;;;;16.09;46.48;99871.50;5038480;28;20505;-76
2023/06/10 04:42:41;;;;;;;3.45;2.88;;;;;;;16.19;45.58;99873.22;5038736;28;20784;-76
2023/06/10 04:45:08;;;;;;;4.75;3.00;;;;;;;16.42;45.70;99871.09;5055032;28;20051;-76
2023/06/10 04:47:34;;;;;;;3.00;2.28;;;;;;;16.72;44.98;99875.50;5037662;28;20051;-76
2023/06/10 04:50:00;;;;;;;5.00;3.08;;;;;;;16.96;43.89;99872.38;5056471;28;20519;-74
2023/06/10 04:52:25;;;;;;;3.15;2.45;;;;;;;17.34;43.66;99868.72;5038377;28;20040;-76
2023/06/10 04:54:51;;;;;;;2.97;2.50;;;;;;;17.65;42.85;99869.34;5055458;28;20052;-75
2023/06/10 04:57:16;;;;;;;3.65;2.35;;;;;;;17.76;42.31;99867.28;5038046;28;20052;-74
2023/06/10 04:59:41;;;;;;;5.93;2.90;;;;;;;17.97;41.91;99874.28;5055375;28;20424;-75
2023/06/10 05:02:07;;;;;;;3.15;2.10;;;;;;;18.10;41.12;99875.63;5037891;28;20056;-74
2023/06/10 05:04:32;;;;;;;6.22;3.17;;;;;;;18.27;40.86;99865.00;5056767;28;20044;-74
2023/06/10 05:06:57;;;;;;;2.45;2.25;;;;;;;18.46;40.43;99884.59;5038589;28;20525;-76
2023/06/10 05:09:22;;;;;;;3.47;2.22;;;;;;;18.64;40.50;99879.22;5038216;28;20051;-74
2023/06/10 05:11:48;;;;;;;3.20;2.20;;;;;;;18.93;40.19;99905.13;5061763;28;20032;-76
2023/06/10 05:14:13;;;;;;;5.32;2.42;;;;;;;19.02;39.48;99880.72;5029262;28;20047;-74
2023/06/10 05:16:38;;;;;;;6.93;2.60;;;;;;;19.09;39.47;99883.63;5046529;28;20051;-76
2023/06/10 05:19:04;;;;;;;2.92;2.50;;;;;;;19.23;39.53;99880.34;5043795;28;20052;-73
2023/06/10 05:21:29;;;;;;;2.92;2.65;;;;;;;19.53;39.18;99873.59;5056306;28;20053;-74
2023/06/10 05:23:55;;;;;;;2.50;2.30;;;;;;;19.91;38.89;99891.22;5054414;28;20048;-73
2023/06/10 05:26:20;;;;;;;3.65;2.50;;;;;;;20.34;38.06;99876.59;5038501;28;20418;-73
2023/06/10 05:28:45;;;;;;;4.57;2.20;;;;;;;20.48;37.28;99878.72;5055092;28;20047;-74
2023/06/10 05:31:11;;;;;;;3.28;2.60;;;;;;;20.63;37.53;99874.34;5036959;28;20052;-73
2023/06/10 05:33:36;;;;;;;6.10;2.50;;;;;;;20.87;36.80;99884.34;5020024;28;20396;-75
2023/06/10 05:36:02;;;;;;;2.95;2.65;;;;;;;20.83;36.47;99877.53;5036257;28;20047;-74
2023/06/10 05:38:27;;;;;;;7.90;2.90;;;;;;;21.02;36.61;99873.63;5037670;28;20783;-74
2023/06/10 05:40:52;;;;;;;4.30;2.70;;;;;;;21.40;36.23;99874.78;5055344;28;20613;-74
2023/06/10 05:43:17;;;;;;;2.80;2.40;;;;;;;21.88;35.43;99813.22;5055748;28;20047;-76
2023/06/10 05:45:42;;;;;;;3.60;2.85;;;;;;;22.38;34.89;99821.75;5055766;28;20723;-75
2023/06/10 05:48:08;;;;;;;4.93;2.40;;;;;;;22.90;34.66;99822.88;5036831;28;20047;-77
2023/06/10 05:50:38;;;;;;;4.22;2.53;;;;;;;23.25;33.15;99827.59;5037974;28;20059;-74
2023/06/10 05:53:03;;;;;;;5.53;2.63;;;;;;;23.83;33.02;99820.47;5025671;28;20495;-75
2023/06/10 05:55:28;;;;;;;3.90;2.75;;;;;;;24.24;32.47;99818.06;5028649;28;20044;-75
2023/06/10 05:58:00;;;;;;;7.25;2.92;;;;;;;24.84;31.28;99812.13;5061349;28;20040;-73
2023/06/10 06:00:26;;;;;;;3.00;2.53;;;;;;;25.48;30.38;99806.50;5062068;28;20042;-75
2023/06/10 06:02:52;;;;;;;8.15;2.80;;;;;;;25.99;29.86;99817.91;5043924;28;20048;-75
2023/06/10 06:05:17;;;;;;;2.63;2.33;;;;;;;26.33;28.99;99806.03;5036941;28;20406;-75
2023/06/10 06:07:43;;;;;;;5.88;2.90;;;;;;;26.78;27.82;99803.56;5037202;28;20044;-75
2023/06/10 06:10:08;;;;;;;6.60;2.95;;;;;;;27.18;27.49;99866.53;5055314;28;20407;-75
2023/06/10 06:12:33;;;;;;;5.63;4.38;;;;;;;27.54;27.20;99877.03;5055674;28;20044;-74
2023/06/10 06:14:58;;;;;;;6.65;3.22;;;;;;;28.11;26.91;99878.94;5058506;28;20048;-75
2023/06/10 06:17:23;;;;;;;8.35;3.38;;;;;;;28.87;25.98;99852.41;5008382;28;20047;-76
2023/06/10 06:19:49;;;;;;;5.97;3.17;;;;;;;29.74;25.30;99872.53;5058897;28;20442;-75
2023/06/10 06:22:14;;;;;;;5.47;3.35;;;;;;;29.73;24.09;99823.28;5041049;28;20044;-73
2023/06/10 06:24:39;;;;;;;3.33;3.03;;;;;;;29.74;24.50;99823.06;5059205;28;20406;-74
2023/06/10 06:27:05;;;;;;;4.60;3.10;;;;;;;29.81;24.08;99818.31;5041398;28;20417;-74
2023/06/10 06:29:30;;;;;;;3.50;3.05;;;;;;;29.63;23.95;99818.31;5059258;28;20048;-73
2023/06/10 06:31:56;;;;;;;5.60;3.25;;;;;;;29.30;23.92;99824.16;5059322;28;20035;-73
2023/06/10 06:34:21;;;;;;;5.32;3.13;;;;;;;29.40;24.08;99831.88;5058501;28;20063;-73
2023/06/10 06:36:46;;;;;;;7.07;3.50;;;;;;;28.95;23.92;99837.56;5041909;28;20044;-73
2023/06/10 06:39:11;;;;;;;3.20;2.92;;;;;;;28.20;24.64;99915.25;5059626;28;20048;-72
2023/06/10 06:41:36;;;;;;;4.28;2.50;;;;;;;27.52;25.59;99885.44;5040862;28;20498;-73
2023/06/10 06:44:02;;;;;;;6.03;2.97;;;;;;;27.58;25.49;99892.81;5038667;28;20044;-73
2023/06/10 06:46:35;;;;;;;7.00;3.42;;;;;;;28.29;25.22;99898.31;5059582;28;20040;-73
2023/06/10 06:49:01;;;;;;;5.28;3.25;;;;;;;27.87;25.25;99932.59;5040780;28;20525;-74
2023/06/10 06:51:26;;;;;;;5.15;3.53;;;;;;;26.67;26.61;99930.00;5058689;28;20497;-73
2023/06/10 06:53:54;;;;;;;4.57;3.08;;;;;;;26.75;27.66;99851.31;5040499;28;20052;-72
2023/06/10 06:56:20;;;;;;;6.30;3.75;;;;;;;27.96;26.31;99854.56;5050028;28;20044;-73
2023/06/10 06:58:45;;;;;;;7.60;3.45;;;;;;;29.72;25.17;99840.81;5058959;28;20048;-74
2023/06/10 07:01:10;;;;;;;3.40;3.08;;;;;;;30.53;23.74;99851.47;5058807;28;20048;-73
2023/06/10 07:03:35;;;;;;;5.22;4.55;;;;;;;29.67;24.25;99847.03;5041170;28;20044;-74
2023/06/10 07:06:01;;;;;;;6.65;2.70;;;;;;;28.21;25.44;99922.41;5040314;28;20044;-73
2023/06/10 07:08:26;;;;;;;3.97;2.97;;;;;;;26.82;26.88;99933.41;5058792;28;20048;-74
2023/06/10 07:10:51;;;;;;;4.88;2.53;;;;;;;25.62;28.39;99914.78;5057463;28;20049;-73
2023/06/10 07:13:16;;;;;;;7.18;3.38;;;;;;;25.56;27.86;99926.47;5032052;28;20430;-75
2023/06/10 07:15:41;;;;;;;4.45;2.67;;;;;;;25.26;28.74;99871.25;5051993;28;20044;-74
2023/06/10 07:18:07;;;;;;;6.72;2.83;;;;;;;25.12;28.50;99863.16;5057888;28;20032;-76
2023/06/10 07:20:32;;;;;;;7.30;3.17;;;;;;;25.88;27.51;99858.63;5057696;28;20048;-76
2023/06/10 07:22:57;;;;;;;3.95;2.65;;;;;;;27.52;26.47;99857.22;5050157;28;20438;-76
2023/06/10 07:25:22;;;;;;;4.57;3.20;;;;;;;29.44;24.51;99860.59;5038578;28;20106;-76
2023/06/10 07:27:47;;;;;;;6.75;2.83;;;;;;;31.23;23.00;99852.47;5057210;28;20047;-76
2023/06/10 07:30:13;;;;;;;5.32;2.97;;;;;;;32.50;21.94;99868.22;5022135;28;20055;-77
2023/06/10 07:32:38;;;;;;;4.97;3.53;;;;;;;33.44;21.53;99863.78;5039095;28;20422;-74
2023/06/10 07:35:05;;;;;;;4.82;3.55;;;;;;;34.51;20.49;99868.84;5039640;28;20421;-74
2023/06/10 07:37:30;;;;;;;4.43;3.53;;;;;;;35.67;19.98;99861.53;5058145;28;20044;-75
2023/06/10 07:39:56;;;;;;;3.53;3.22;;;;;;;36.58;18.83;99866.66;5056675;28;20036;-75
2023/06/10 07:42:21;;;;;;;4.28;3.58;;;;;;;37.07;18.49;99875.38;5039978;28;20047;-74
2023/06/10 07:44:47;;;;;;;3.60;3.30;;;;;;;35.97;18.54;99873.94;5057697;28;20036;-74
2023/06/10 07:47:12;;;;;;;8.32;3.15;;;;;;;33.89;19.80;99867.25;5056236;28;20055;-75
2023/06/10 07:49:37;;;;;;;5.45;3.60;;;;;;;31.58;22.03;99877.28;5039219;28;20803;-75
2023/06/10 07:52:02;;;;;;;8.02;3.95;;;;;;;29.96;22.64;99879.28;5038502;28;20056;-74
2023/06/10 07:54:28;;;;;;;4.40;2.83;;;;;;;28.42;23.68;99887.28;5057290;28;20051;-76
2023/06/10 07:56:53;;;;;;;5.25;4.05;;;;;;;27.01;25.16;99891.56;5057800;28;20052;-74
2023/06/10 07:59:19;;;;;;;7.00;2.45;;;;;;;25.77;26.30;99939.25;5057634;28;20063;-74
2023/06/10 08:01:44;;;;;;;4.55;2.95;;;;;;;24.78;27.16;99960.16;5038708;28;20055;-76
2023/06/10 08:04:09;;;;;;;7.63;3.40;;;;;;;24.31;27.80;99957.09;5057304;28;20514;-75
2023/06/10 08:06:36;;;;;;;4.68;2.55;;;;;;;24.01;28.25;99967.16;5055963;28;20040;-74
2023/06/10 08:09:02;;;;;;;4.45;2.55;;;;;;;23.86;28.15;99965.25;5056322;28;20513;-77
2023/06/10 08:11:28;;;;;;;5.97;3.05;;;;;;;24.87;27.30;99895.44;5055937;28;20043;-75
2023/06/10 08:13:54;;;;;;;5.32;2.55;;;;;;;27.01;25.61;99894.31;5056844;28;20051;-75
2023/06/10 08:16:19;;;;;;;2.97;2.45;;;;;;;28.70;23.07;99897.03;5039375;28;20047;-77
2023/06/10 08:18:44;;;;;;;2.75;2.55;;;;;;;30.14;21.64;99891.31;5056243;28;20046;-77
2023/06/10 08:21:09;;;;;;;3.47;3.15;;;;;;;31.40;21.09;99891.16;5038447;28;20494;-77
2023/06/10 08:23:35;;;;;;;6.20;3.00;;;;;;;32.89;20.09;99896.84;5039263;28;20043;-75
2023/06/10 08:26:00;;;;;;;5.65;3.97;;;;;;;33.68;18.85;99887.38;5056975;28;20043;-78
2023/06/10 08:28:25;;;;;;;3.40;3.10;;;;;;;33.96;18.67;99893.91;5038485;28;20052;-76
2023/06/10 08:30:50;;;;;;;12.70;3.50;;;;;;;34.59;18.48;99893.28;5056887;28;20059;-75
2023/06/10 08:33:15;;;;;;;8.10;3.83;;;;;;;35.64;17.70;99900.09;5038448;28;20056;-76
2023/06/10 08:35:41;;;;;;;5.78;3.50;;;;;;;35.78;17.64;99895.75;5056351;28;20054;-74
2023/06/10 08:38:06;;;;;;;4.78;2.85;;;;;;;35.32;17.98;99902.09;5057061;28;20044;-76
2023/06/10 08:40:32;;;;;;;3.67;2.95;;;;;;;33.54;18.94;99920.06;5056027;28;20406;-75
2023/06/10 08:43:16;;;;;;;2.63;2.42;;;;;;;31.67;20.02;99908.09;5055425;28;20047;-75
2023/06/10 08:45:44;;;;;;;3.00;2.80;;;;;;;29.30;21.62;99908.44;5035467;28;20499;-76
2023/06/10 08:48:11;;;;;;;4.45;2.63;;;;;;;27.76;22.73;99917.66;5056304;28;20044;-75
2023/06/10 08:50:38;;;;;;;4.55;2.42;;;;;;;28.48;22.91;99963.19;5038675;28;20052;-75
2023/06/10 08:53:06;;;;;;;3.92;3.47;;;;;;;31.08;20.76;99920.91;5037976;28;20051;-75
2023/06/10 08:55:38;;;;;;;5.75;3.13;;;;;;;34.10;19.16;99909.00;5056098;28;20040;-73
2023/06/10 08:58:03;;;;;;;8.13;3.25;;;;;;;36.40;17.24;99908.00;5055139;28;20043;-74
2023/06/10 09:00:31;;;;;;;4.03;3.63;;;;;;;37.67;15.56;99918.22;5038230;28;20056;-75
2023/06/10 09:02:58;;;;;;;4.18;3.80;;;;;;;39.09;15.09;99914.81;5056176;28;20048;-76
2023/06/10 09:05:24;;;;;;;8.80;4.50;;;;;;;39.37;14.30;99918.78;5056121;28;20534;-72
2023/06/10 09:07:52;;;;;;;8.00;4.28;;;;;;;39.91;14.07;99917.75;5056163;28;20040;-75
2023/06/10 09:10:17;;;;;;;4.55;4.25;;;;;;;40.75;13.77;99920.91;5037220;28;20048;-77
2023/06/10 09:12:42;;;;;;;4.90;4.50;;;;;;;41.43;13.42;99920.38;5055909;28;20043;-74
2023/06/10 09:15:08;;;;;;;5.57;5.18;;;;;;;41.84;12.85;99917.69;5054423;28;20048;-75
2023/06/10 09:17:36;;;;;;;6.10;5.60;;;;;;;42.28;12.60;99920.75;5054567;28;20036;-74
2023/06/10 09:20:02;;;;;;;5.55;5.05;;;;;;;42.67;12.40;99917.38;5036788;28;20537;-73
2023/06/10 09:22:34;;;;;;;5.68;5.18;;;;;;;42.77;11.96;99915.50;5036963;28;20052;-75
2023/06/10 09:25:08;;;;;;;6.60;6.00;;;;;;;43.34;11.56;99925.91;5020418;28;20054;-75
2023/06/10 09:27:44;;;;;;;12.32;5.72;;;;;;;42.98;11.99;99923.13;5055438;28;20503;-75
2023/06/10 09:30:10;;;;;;;7.03;5.07;;;;;;;39.86;12.83;99915.81;5055109;28;20035;-75
2023/06/10 09:32:39;;;;;;;4.90;4.40;;;;;;;37.90;13.42;99971.63;5055986;28;20042;-74
2023/06/10 09:35:09;;;;;;;6.65;4.78;;;;;;;37.26;14.16;99933.22;5055809;28;20052;-74
2023/06/10 09:37:38;;;;;;;5.28;4.28;;;;;;;37.49;13.82;99923.47;5056223;28;20044;-73
2023/06/10 09:40:05;;;;;;;5.90;4.30;;;;;;;37.99;14.08;99925.38;5056382;28;20044;-73
2023/06/10 09:42:35;;;;;;;5.00;4.60;;;;;;;39.24;13.39;99922.25;5056290;28;20054;-73
2023/06/10 09:45:05;;;;;;;4.90;4.50;;;;;;;40.50;13.16;99922.06;5038318;28;20145;-75
2023/06/10 09:47:32;;;;;;;5.03;4.72;;;;;;;41.25;12.49;99920.13;5055742;28;20399;-73
2023/06/10 09:49:58;;;;;;;6.00;5.50;;;;;;;42.11;12.16;99919.69;5055750;28;20044;-74
2023/06/10 09:52:25;;;;;;;6.15;5.65;;;;;;;43.09;11.77;99924.53;5054331;28;20402;-76
2023/06/10 09:54:52;;;;;;;7.13;6.47;;;;;;;43.51;11.29;99918.72;5054117;28;20055;-78
2023/06/10 09:57:18;;;;;;;7.43;6.70;;;;;;;42.71;11.68;99928.78;5036511;28;20044;-74
2023/06/10 09:59:45;;;;;;;5.57;5.13;;;;;;;40.03;12.52;99960.06;5037495;28;20047;-76
2023/06/10 10:02:15;;;;;;;4.97;4.57;;;;;;;36.88;13.79;99974.31;5054660;28;20518;-74
2023/06/10 10:04:41;;;;;;;6.13;3.70;;;;;;;34.12;15.22;99927.03;5036642;28;20039;-74
2023/06/10 10:07:07;;;;;;;15.07;3.60;;;;;;;31.76;16.57;99917.66;5054947;28;20044;-74
2023/06/10 10:09:32;;;;;;;2.60;2.50;;;;;;;31.31;17.25;99925.66;5019689;28;20059;-74
2023/06/10 10:12:00;;;;;;;11.73;3.55;;;;;;;33.41;16.27;99919.59;5055151;28;20052;-76
2023/06/10 10:14:28;;;;;;;3.58;3.28;;;;;;;36.29;15.52;99921.03;5035946;28;20059;-74
2023/06/10 10:16:55;;;;;;;3.80;3.50;;;;;;;36.63;14.56;99922.25;5053257;28;20047;-76
2023/06/10 10:19:25;;;;;;;5.20;3.50;;;;;;;35.33;15.04;99929.50;5049916;28;20422;-74
2023/06/10 10:21:54;;;;;;;5.07;3.50;;;;;;;34.56;15.18;99932.56;5045421;28;20549;-74
2023/06/10 10:24:26;;;;;;;3.75;3.38;;;;;;;34.05;15.69;99920.84;5053885;28;20055;-75
2023/06/10 10:26:55;;;;;;;6.90;3.35;;;;;;;34.64;15.65;99923.81;5053059;28;20051;-74
2023/06/10 10:29:30;;;;;;;7.47;3.47;;;;;;;34.53;15.83;99922.03;5052072;28;20048;-75
2023/06/10 10:31:59;;;;;;;7.18;2.90;;;;;;;32.90;16.00;99928.91;5045894;28;20040;-73
2023/06/10 10:34:34;;;;;;;3.33;2.65;;;;;;;31.48;17.77;99920.28;5058767;28;20043;-74
2023/06/10 10:37:00;;;;;;;5.88;3.58;;;;;;;29.62;18.65;99923.81;5037338;28;20546;-75
2023/06/10 10:39:28;;;;;;;5.15;2.70;;;;;;;28.24;19.67;99927.44;5056292;28;20048;-75
2023/06/10 10:41:53;;;;;;;4.18;2.55;;;;;;;27.04;20.57;99932.22;5055024;28;20512;-73
2023/06/10 10:44:19;;;;;;;3.92;1.98;;;;;;;26.02;21.69;99939.59;5053304;28;20052;-75
2023/06/10 10:46:49;;;;;;;4.13;2.30;;;;;;;25.37;22.62;99940.81;5034642;28;20059;-73
2023/06/10 10:49:15;;;;;;;4.03;2.30;;;;;;;24.80;22.51;99955.38;5051511;28;20044;-76
2023/06/10 10:52:01;;;;;;;4.13;2.03;;;;;;;24.57;22.65;99949.25;5018406;28;20055;-72
2023/06/10 10:54:35;;;;;;;4.70;2.90;;;;;;;23.64;23.05;99943.56;5019108;28;20048;-72
2023/06/10 10:57:11;;;;;;;4.35;2.13;;;;;;;23.22;23.39;99944.13;5036587;28;20040;-74
2023/06/10 10:59:46;;;;;;;4.30;2.30;;;;;;;22.89;23.60;99946.25;5055590;28;20055;-76
2023/06/10 11:02:17;;;;;;;2.88;1.75;;;;;;;22.77;24.63;99948.53;5058128;28;20079;-77
2023/06/10 11:04:48;;;;;;;3.25;1.92;;;;;;;22.72;24.60;99943.59;5020657;28;20479;-74
2023/06/10 11:07:20;;;;;;;2.13;1.92;;;;;;;22.51;25.61;99943.41;5055800;28;20052;-76
2023/06/10 11:09:59;;;;;;;2.80;2.25;;;;;;;22.63;25.38;99954.72;5058524;28;20082;-76
2023/06/10 11:12:24;;;;;;;5.85;2.00;;;;;;;22.28;26.16;99946.06;5036457;28;20534;-74
2023/06/10 11:14:56;;;;;;;6.63;1.95;;;;;;;22.07;26.80;99949.41;5050619;28;20044;-73
2023/06/10 11:17:21;;;;;;;5.85;2.53;;;;;;;21.72;27.02;99939.81;5051001;28;20043;-74
2023/06/10 11:19:46;;;;;;;2.15;1.85;;;;;;;21.43;26.79;99944.13;5058689;28;20402;-74
2023/06/10 11:22:17;;;;;;;4.68;2.47;;;;;;;21.16;27.32;99948.84;5022391;28;20134;-78
2023/06/10 11:24:50;;;;;;;2.55;1.80;;;;;;;20.87;27.97;99948.53;5057216;28;20067;-72
2023/06/10 11:27:17;;;;;;;5.65;1.90;;;;;;;20.64;28.27;99948.31;5038608;28;20059;-72
2023/06/10 11:30:00;;;;;;;1.95;1.85;;;;;;;20.69;27.95;99948.66;5038735;28;20039;-72
2023/06/10 11:32:32;;;;;;;2.55;1.80;;;;;;;20.57;28.13;99947.28;5036194;28;20529;-72
2023/06/10 11:34:58;;;;;;;5.78;2.28;;;;;;;20.59;27.86;99956.94;5057802;28;20118;-73